Time,TemperatureF,DewpointF,PressureIn,WindDirection,WindDirectionDegrees,WindSpeedMPH,WindSpeedGustMPH,Humidity,HourlyPrecipIn,Conditions,Clouds,dailyrainin,SoftwareType,DateUTC
2013-01-26 00:00:00,11.7,7.7,29.26,SSW,203,0.0,0.0,84,0.00,,,0.00,meteohub,2013-01-26 05:00:00,
2013-01-26 00:01:00,11.7,7.7,29.26,SSW,203,0.0,0.0,84,0.00,,,0.00,meteohub,2013-01-26 05:01:00,
2013-01-26 00:06:00,11.8,7.9,29.26,SSW,203,0.0,0.0,84,0.00,,,0.00,meteohub,2013-01-26 05:06:00,
2013-01-26 00:11:00,11.7,7.7,29.26,SSW,203,0.0,0.0,84,0.00,,,0.00,meteohub,2013-01-26 05:11:00,
2013-01-26 00:16:00,11.8,7.9,29.26,WSW,248,0.0,0.0,84,0.00,,,0.00,meteohub,2013-01-26 05:16:00,
2013-01-26 00:21:00,11.8,7.9,29.26,ESE,113,0.0,0.0,84,0.00,,,0.00,meteohub,2013-01-26 05:21:00,
2013-01-26 00:26:00,11.8,7.9,29.26,NNE,23,0.0,0.0,84,0.00,,,0.00,meteohub,2013-01-26 05:26:00,
2013-01-26 00:31:00,11.8,7.7,29.26,ESE,113,0.0,0.0,83,0.00,,,0.00,meteohub,2013-01-26 05:31:00,
2013-01-26 00:36:00,12.0,7.9,29.26,East,90,0.0,0.0,83,0.00,,,0.00,meteohub,2013-01-26 05:36:00,
2013-01-26 00:41:00,12.2,8.1,29.26,ENE,68,0.0,0.0,83,0.00,,,0.00,meteohub,2013-01-26 05:41:00,
2013-01-26 00:46:00,12.4,8.2,29.26,SSE,158,0.0,0.0,83,0.00,,,0.00,meteohub,2013-01-26 05:46:00,
2013-01-26 00:51:00,12.6,8.4,29.26,ESE,113,0.0,0.0,83,0.00,,,0.00,meteohub,2013-01-26 05:51:00,
2013-01-26 00:56:00,12.6,8.4,29.26,SE,135,0.0,0.0,83,0.00,,,0.00,meteohub,2013-01-26 05:56:00,
2013-01-26 01:01:00,12.6,8.4,29.26,SSW,203,0.0,0.0,83,0.00,,,0.00,meteohub,2013-01-26 06:01:00,
2013-01-26 01:06:00,12.6,8.4,29.26,SW,225,0.0,0.0,83,0.00,,,0.00,meteohub,2013-01-26 06:06:00,
2013-01-26 01:11:00,12.6,8.4,29.26,West,270,0.0,0.0,83,0.00,,,0.00,meteohub,2013-01-26 06:11:00,
2013-01-26 01:16:00,12.6,8.4,29.27,North,0,0.0,0.0,83,0.00,,,0.00,meteohub,2013-01-26 06:16:00,
2013-01-26 01:21:00,12.7,8.6,29.27,North,0,0.0,0.0,83,0.00,,,0.00,meteohub,2013-01-26 06:21:00,
2013-01-26 01:26:00,12.9,8.8,29.27,NNE,23,0.0,0.0,83,0.00,,,0.00,meteohub,2013-01-26 06:26:00,
2013-01-26 01:31:00,13.3,9.1,29.27,NNE,23,0.0,0.0,83,0.00,,,0.00,meteohub,2013-01-26 06:31:00,
2013-01-26 01:36:00,13.6,9.5,29.27,NNE,23,0.0,0.0,83,0.00,,,0.00,meteohub,2013-01-26 06:36:00,
2013-01-26 01:41:00,14.0,9.9,29.27,NNE,23,0.0,0.0,83,0.00,,,0.00,meteohub,2013-01-26 06:41:00,
2013-01-26 01:46:00,14.2,10.0,29.27,NNE,23,0.0,0.0,83,0.00,,,0.00,meteohub,2013-01-26 06:46:00,
2013-01-26 01:51:00,14.2,10.0,29.27,NNE,23,0.0,0.0,83,0.00,,,0.00,meteohub,2013-01-26 06:51:00,
2013-01-26 01:56:00,14.0,9.9,29.28,SW,225,0.0,0.0,83,0.00,,,0.00,meteohub,2013-01-26 06:56:00,
2013-01-26 02:01:00,13.8,9.7,29.28,SW,225,0.0,1.0,83,0.00,,,0.00,meteohub,2013-01-26 07:01:00,
2013-01-26 02:06:00,13.8,9.7,29.28,SW,225,0.0,1.0,83,0.00,,,0.00,meteohub,2013-01-26 07:06:00,
2013-01-26 02:11:00,13.8,9.7,29.28,SW,225,0.0,1.0,83,0.00,,,0.00,meteohub,2013-01-26 07:11:00,
2013-01-26 02:16:00,13.6,9.5,29.29,SW,225,0.0,0.0,83,0.00,,,0.00,meteohub,2013-01-26 07:16:00,
2013-01-26 02:21:00,13.6,9.5,29.29,SW,225,0.0,0.0,83,0.00,,,0.00,meteohub,2013-01-26 07:21:00,
2013-01-26 02:26:00,13.8,9.7,29.29,NW,315,0.0,0.0,83,0.00,,,0.00,meteohub,2013-01-26 07:26:00,
2013-01-26 02:31:00,13.8,9.7,29.29,SW,225,0.0,0.0,83,0.00,,,0.00,meteohub,2013-01-26 07:31:00,
2013-01-26 02:36:00,13.8,9.7,29.30,SW,225,0.0,0.0,83,0.00,,,0.00,meteohub,2013-01-26 07:36:00,
2013-01-26 02:41:00,13.8,9.7,29.30,SW,225,0.0,0.0,83,0.00,,,0.00,meteohub,2013-01-26 07:41:00,
2013-01-26 02:46:00,14.0,9.9,29.30,SW,225,0.0,0.0,83,0.00,,,0.00,meteohub,2013-01-26 07:46:00,
2013-01-26 02:51:00,14.0,9.9,29.30,SW,225,0.0,0.0,83,0.00,,,0.00,meteohub,2013-01-26 07:51:00,
2013-01-26 02:56:00,14.0,9.9,29.30,SW,225,0.0,0.0,83,0.00,,,0.00,meteohub,2013-01-26 07:56:00,
2013-01-26 03:01:00,14.0,9.9,29.30,SW,225,0.0,0.0,83,0.00,,,0.00,meteohub,2013-01-26 08:01:00,
2013-01-26 03:06:00,14.0,9.9,29.30,SW,225,0.0,0.0,83,0.00,,,0.00,meteohub,2013-01-26 08:06:00,
2013-01-26 03:11:00,14.0,9.9,29.30,SW,225,0.0,0.0,83,0.00,,,0.00,meteohub,2013-01-26 08:11:00,
2013-01-26 03:16:00,14.2,10.0,29.31,SW,225,0.0,0.0,83,0.00,,,0.00,meteohub,2013-01-26 08:16:00,
2013-01-26 03:21:00,14.2,10.0,29.31,SW,225,0.0,0.0,83,0.00,,,0.00,meteohub,2013-01-26 08:21:00,
2013-01-26 03:26:00,14.2,10.0,29.31,SW,225,0.0,0.0,83,0.00,,,0.00,meteohub,2013-01-26 08:26:00,
2013-01-26 03:31:00,14.2,10.0,29.31,SW,225,0.0,0.0,83,0.00,,,0.00,meteohub,2013-01-26 08:31:00,
2013-01-26 03:36:00,14.4,10.2,29.33,SW,225,0.0,0.0,83,0.00,,,0.00,meteohub,2013-01-26 08:36:00,
2013-01-26 03:41:00,14.4,10.2,29.33,SW,225,0.0,0.0,83,0.00,,,0.00,meteohub,2013-01-26 08:41:00,
2013-01-26 03:46:00,14.4,10.2,29.33,SW,225,0.0,0.0,83,0.00,,,0.00,meteohub,2013-01-26 08:46:00,
2013-01-26 03:51:00,14.4,10.2,29.33,SW,225,0.0,0.0,83,0.00,,,0.00,meteohub,2013-01-26 08:51:00,
2013-01-26 03:56:00,14.4,10.2,29.34,SW,225,0.0,0.0,83,0.00,,,0.00,meteohub,2013-01-26 08:56:00,
2013-01-26 04:01:00,14.4,10.2,29.34,SW,225,0.0,0.0,83,0.00,,,0.00,meteohub,2013-01-26 09:01:00,
2013-01-26 11:06:00,16.3,12.0,29.52,SSW,203,0.0,0.0,83,0.00,,,0.00,meteohub,2013-01-26 16:06:00,
2013-01-26 11:11:00,17.1,12.6,29.52,NE,45,0.0,0.0,82,0.00,,,0.00,meteohub,2013-01-26 16:11:00,
2013-01-26 11:16:00,17.6,13.3,29.54,NNE,23,0.0,0.0,83,0.00,,,0.00,meteohub,2013-01-26 16:16:00,
2013-01-26 11:21:00,18.3,13.8,29.54,SSW,203,0.0,0.0,82,0.00,,,0.00,meteohub,2013-01-26 16:21:00,
2013-01-26 11:26:00,18.7,14.2,29.54,South,180,0.0,0.0,82,0.00,,,0.00,meteohub,2013-01-26 16:26:00,
2013-01-26 11:31:00,18.7,14.2,29.54,SSE,158,0.0,0.0,82,0.00,,,0.00,meteohub,2013-01-26 16:31:00,
2013-01-26 11:36:00,18.9,14.5,29.55,SW,225,0.0,0.0,83,0.00,,,0.00,meteohub,2013-01-26 16:36:00,
2013-01-26 11:41:00,18.7,14.4,29.55,SSE,158,0.0,0.0,83,0.00,,,0.00,meteohub,2013-01-26 16:41:00,
2013-01-26 11:46:00,19.0,14.7,29.55,SW,225,2.0,0.0,83,0.00,,,0.00,meteohub,2013-01-26 16:46:00,
2013-01-26 11:51:00,19.4,14.7,29.55,SE,135,0.0,0.0,82,0.00,,,0.00,meteohub,2013-01-26 16:51:00,
2013-01-26 11:56:00,19.9,15.3,29.54,SW,225,3.0,3.0,82,0.00,,,0.00,meteohub,2013-01-26 16:56:00,
2013-01-26 12:01:00,20.5,15.8,29.54,SSE,158,2.0,3.0,82,0.00,,,0.00,meteohub,2013-01-26 17:01:00,
2013-01-26 12:06:00,21.0,16.3,29.54,SSE,158,3.0,3.0,82,0.00,,,0.00,meteohub,2013-01-26 17:06:00,
2013-01-26 12:11:00,21.2,16.5,29.54,SSE,158,3.0,3.0,82,0.00,,,0.00,meteohub,2013-01-26 17:11:00,
2013-01-26 12:16:00,21.2,16.5,29.55,SSW,203,3.0,3.0,82,0.00,,,0.00,meteohub,2013-01-26 17:16:00,
2013-01-26 12:21:00,21.2,16.5,29.55,SW,225,4.0,4.0,82,0.00,,,0.00,meteohub,2013-01-26 17:21:00,
2013-01-26 12:26:00,21.2,16.5,29.55,SSW,203,2.0,4.0,82,0.00,,,0.00,meteohub,2013-01-26 17:26:00,
2013-01-26 12:31:00,21.2,16.5,29.55,SSW,203,3.0,4.0,82,0.00,,,0.00,meteohub,2013-01-26 17:31:00,
2013-01-26 12:36:00,21.2,16.9,29.54,SSW,203,3.0,4.0,83,0.00,,,0.00,meteohub,2013-01-26 17:36:00,
2013-01-26 12:41:00,21.2,16.9,29.54,ESE,113,0.0,4.0,83,0.00,,,0.00,meteohub,2013-01-26 17:41:00,
2013-01-26 12:46:00,21.4,16.7,29.54,SSE,158,3.0,4.0,82,0.00,,,0.00,meteohub,2013-01-26 17:46:00,
2013-01-26 12:52:00,21.6,16.9,29.54,SSE,158,2.0,4.0,82,0.00,,,0.00,meteohub,2013-01-26 17:52:00,
2013-01-26 12:57:00,21.6,16.9,29.55,SSE,158,3.0,4.0,82,0.00,,,0.00,meteohub,2013-01-26 17:57:00,
2013-01-26 13:02:00,21.6,16.9,29.55,ESE,113,0.0,3.0,82,0.00,,,0.00,meteohub,2013-01-26 18:02:00,
2013-01-26 13:07:00,21.9,17.2,29.55,SE,135,1.0,3.0,82,0.00,,,0.00,meteohub,2013-01-26 18:07:00,
2013-01-26 13:12:00,22.5,17.8,29.55,South,180,0.0,4.0,82,0.00,,,0.00,meteohub,2013-01-26 18:12:00,
2013-01-26 13:17:00,22.6,18.0,29.54,SSW,203,3.0,3.0,82,0.00,,,0.00,meteohub,2013-01-26 18:17:00,
2013-01-26 13:22:00,22.8,18.1,29.54,SE,135,3.0,3.0,82,0.00,,,0.00,meteohub,2013-01-26 18:22:00,
2013-01-26 13:27:00,23.2,18.5,29.54,SSW,203,1.0,3.0,82,0.00,,,0.00,meteohub,2013-01-26 18:27:00,
2013-01-26 13:32:00,23.4,18.7,29.54,SW,225,2.0,3.0,82,0.00,,,0.00,meteohub,2013-01-26 18:32:00,
2013-01-26 13:37:00,23.4,18.7,29.54,SSW,203,4.0,4.0,82,0.00,,,0.00,meteohub,2013-01-26 18:37:00,
2013-01-26 13:42:00,23.4,18.7,29.54,East,90,3.0,4.0,82,0.00,,,0.00,meteohub,2013-01-26 18:42:00,
2013-01-26 13:47:00,23.4,19.0,29.54,NNE,23,1.0,4.0,83,0.00,,,0.00,meteohub,2013-01-26 18:47:00,
2013-01-26 13:52:00,23.4,19.0,29.54,NE,45,4.0,4.0,83,0.00,,,0.00,meteohub,2013-01-26 18:52:00,
2013-01-26 13:57:00,23.4,19.0,29.54,NE,45,2.0,3.0,83,0.00,,,0.00,meteohub,2013-01-26 18:57:00,
2013-01-26 14:02:00,23.2,18.9,29.54,NW,315,2.0,4.0,83,0.00,,,0.00,meteohub,2013-01-26 19:02:00,
2013-01-26 14:07:00,23.4,19.0,29.54,NE,45,4.0,4.0,83,0.00,,,0.00,meteohub,2013-01-26 19:07:00,
2013-01-26 14:12:00,23.4,19.0,29.54,West,270,0.0,4.0,83,0.00,,,0.00,meteohub,2013-01-26 19:12:00,
2013-01-26 14:17:00,23.5,19.2,29.54,NW,315,0.0,4.0,83,0.00,,,0.00,meteohub,2013-01-26 19:17:00,
2013-01-26 14:22:00,23.9,19.6,29.54,WNW,293,2.0,4.0,83,0.00,,,0.00,meteohub,2013-01-26 19:22:00,
2013-01-26 14:27:00,24.1,19.8,29.54,NNE,23,2.0,2.0,83,0.00,,,0.00,meteohub,2013-01-26 19:27:00,
2013-01-26 14:32:00,24.1,19.8,29.54,ESE,113,0.0,2.0,83,0.00,,,0.00,meteohub,2013-01-26 19:32:00,
2013-01-26 14:37:00,24.1,19.8,29.56,WNW,293,3.0,3.0,83,0.00,,,0.00,meteohub,2013-01-26 19:37:00,
2013-01-26 14:42:00,24.3,19.8,29.56,North,0,2.0,3.0,83,0.00,,,0.00,meteohub,2013-01-26 19:42:00,
2013-01-26 14:47:00,24.6,20.1,29.56,NNE,23,0.0,3.0,83,0.00,,,0.00,meteohub,2013-01-26 19:47:00,
2013-01-26 14:52:00,24.4,19.9,29.56,WSW,248,3.0,3.0,83,0.00,,,0.00,meteohub,2013-01-26 19:52:00,
2013-01-26 14:57:00,24.4,19.9,29.55,WSW,248,2.0,4.0,83,0.00,,,0.00,meteohub,2013-01-26 19:57:00,
2013-01-26 15:02:00,24.6,20.1,29.55,SW,225,2.0,4.0,83,0.00,,,0.00,meteohub,2013-01-26 20:02:00,
2013-01-26 15:07:00,24.6,20.1,29.55,North,0,2.0,3.0,83,0.00,,,0.00,meteohub,2013-01-26 20:07:00,
2013-01-26 15:12:00,24.6,20.1,29.55,ESE,113,0.0,3.0,83,0.00,,,0.00,meteohub,2013-01-26 20:12:00,
2013-01-26 15:17:00,24.4,19.9,29.57,ESE,113,2.0,3.0,83,0.00,,,0.00,meteohub,2013-01-26 20:17:00,
2013-01-26 15:22:00,24.3,19.6,29.57,East,90,2.0,3.0,82,0.00,,,0.00,meteohub,2013-01-26 20:22:00,
2013-01-26 15:27:00,24.3,19.2,29.57,NNW,338,0.0,3.0,81,0.00,,,0.00,meteohub,2013-01-26 20:27:00,
2013-01-26 15:32:00,24.6,19.9,29.57,ESE,113,2.0,3.0,82,0.00,,,0.00,meteohub,2013-01-26 20:32:00,
2013-01-26 15:37:00,24.8,20.1,29.57,NW,315,2.0,3.0,82,0.00,,,0.00,meteohub,2013-01-26 20:37:00,
2013-01-26 15:42:00,24.8,20.1,29.57,NE,45,4.0,4.0,82,0.00,,,0.00,meteohub,2013-01-26 20:42:00,
2013-01-26 15:47:00,24.4,19.2,29.57,NE,45,0.0,3.0,80,0.00,,,0.00,meteohub,2013-01-26 20:47:00,
2013-01-26 15:52:00,24.4,19.2,29.57,East,90,0.0,3.0,80,0.00,,,0.00,meteohub,2013-01-26 20:52:00,
2013-01-26 15:57:00,24.6,19.6,29.58,NE,45,0.0,4.0,81,0.00,,,0.00,meteohub,2013-01-26 20:57:00,
2013-01-26 16:02:00,24.8,19.8,29.58,SW,225,0.0,3.0,81,0.00,,,0.00,meteohub,2013-01-26 21:02:00,
2013-01-26 16:07:00,24.8,19.8,29.58,SW,225,1.0,1.0,81,0.00,,,0.00,meteohub,2013-01-26 21:07:00,
2013-01-26 16:12:00,24.8,20.1,29.58,SSE,158,2.0,2.0,82,0.00,,,0.00,meteohub,2013-01-26 21:12:00,
2013-01-26 16:17:00,24.6,20.1,29.59,SW,225,3.0,4.0,83,0.00,,,0.00,meteohub,2013-01-26 21:17:00,
2013-01-26 16:22:00,24.4,19.9,29.59,SSW,203,3.0,4.0,83,0.00,,,0.00,meteohub,2013-01-26 21:22:00,
2013-01-26 16:27:00,24.6,20.1,29.59,SW,225,2.0,4.0,83,0.00,,,0.00,meteohub,2013-01-26 21:27:00,
2013-01-26 16:32:00,24.6,20.1,29.59,WNW,293,0.0,4.0,83,0.00,,,0.00,meteohub,2013-01-26 21:32:00,
2013-01-26 16:37:00,24.3,19.8,29.59,SSE,158,1.0,3.0,83,0.00,,,0.00,meteohub,2013-01-26 21:37:00,
2013-01-26 16:42:00,24.3,19.8,29.59,SE,135,2.0,3.0,83,0.00,,,0.00,meteohub,2013-01-26 21:42:00,
2013-01-26 16:47:00,24.1,19.8,29.59,SSE,158,2.0,2.0,83,0.00,,,0.00,meteohub,2013-01-26 21:47:00,
2013-01-26 16:52:00,23.9,19.6,29.59,SSE,158,0.0,2.0,83,0.00,,,0.00,meteohub,2013-01-26 21:52:00,
2013-01-26 16:57:00,23.7,19.4,29.60,WNW,293,0.0,2.0,83,0.00,,,0.00,meteohub,2013-01-26 21:57:00,
2013-01-26 17:02:00,23.7,19.4,29.60,NE,45,0.0,2.0,83,0.00,,,0.00,meteohub,2013-01-26 22:02:00,
2013-01-26 17:07:00,23.5,19.2,29.60,NE,45,0.0,2.0,83,0.00,,,0.00,meteohub,2013-01-26 22:07:00,
2013-01-26 17:12:00,23.2,18.9,29.60,NE,45,0.0,2.0,83,0.00,,,0.00,meteohub,2013-01-26 22:12:00,
2013-01-26 17:17:00,22.6,18.3,29.60,NE,45,0.0,0.0,83,0.00,,,0.00,meteohub,2013-01-26 22:17:00,
2013-01-26 17:22:00,22.5,18.1,29.60,NE,45,0.0,0.0,83,0.00,,,0.00,meteohub,2013-01-26 22:22:00,
2013-01-26 17:27:00,22.1,17.8,29.60,NNE,23,0.0,0.0,83,0.00,,,0.00,meteohub,2013-01-26 22:27:00,
2013-01-26 17:32:00,21.9,17.6,29.60,NE,45,0.0,0.0,83,0.00,,,0.00,meteohub,2013-01-26 22:32:00,
2013-01-26 17:37:00,21.6,17.2,29.60,NNE,23,0.0,0.0,83,0.00,,,0.00,meteohub,2013-01-26 22:37:00,
2013-01-26 17:42:00,21.2,16.9,29.60,NNE,23,2.0,0.0,83,0.00,,,0.00,meteohub,2013-01-26 22:42:00,
2013-01-26 17:47:00,21.0,16.7,29.60,NNE,23,0.0,2.0,83,0.00,,,0.00,meteohub,2013-01-26 22:47:00,
2013-01-26 17:52:00,20.5,16.2,29.60,NNE,23,2.0,2.0,83,0.00,,,0.00,meteohub,2013-01-26 22:52:00,
2013-01-26 17:57:00,19.9,15.6,29.60,NNE,23,2.0,2.0,83,0.00,,,0.00,meteohub,2013-01-26 22:57:00,
2013-01-26 18:02:00,19.6,14.9,29.60,NNE,23,2.0,2.0,82,0.00,,,0.00,meteohub,2013-01-26 23:02:00,
2013-01-26 18:07:00,19.2,14.9,29.60,NNE,23,0.0,2.0,83,0.00,,,0.00,meteohub,2013-01-26 23:07:00,
2013-01-26 18:12:00,19.0,14.7,29.60,NE,45,0.0,2.0,83,0.00,,,0.00,meteohub,2013-01-26 23:12:00,
2013-01-26 18:17:00,18.7,14.4,29.60,NE,45,0.0,2.0,83,0.00,,,0.00,meteohub,2013-01-26 23:17:00,
2013-01-26 18:22:00,18.3,14.0,29.60,NE,45,0.0,2.0,83,0.00,,,0.00,meteohub,2013-01-26 23:22:00,
2013-01-26 18:27:00,17.8,13.5,29.60,SSW,203,0.0,0.0,83,0.00,,,0.00,meteohub,2013-01-26 23:27:00,
2013-01-26 18:32:00,17.2,12.9,29.60,NE,45,0.0,0.0,83,0.00,,,0.00,meteohub,2013-01-26 23:32:00,
2013-01-26 18:37:00,16.9,12.6,29.60,NNE,23,0.0,0.0,83,0.00,,,0.00,meteohub,2013-01-26 23:37:00,
2013-01-26 18:42:00,16.2,11.8,29.60,NE,45,2.0,0.0,83,0.00,,,0.00,meteohub,2013-01-26 23:42:00,
2013-01-26 18:47:00,16.0,11.7,29.60,NNE,23,2.0,2.0,83,0.00,,,0.00,meteohub,2013-01-26 23:47:00,
2013-01-26 18:52:00,15.8,11.5,29.60,NE,45,0.0,2.0,83,0.00,,,0.00,meteohub,2013-01-26 23:52:00,
2013-01-26 18:57:00,15.6,11.3,29.61,SSW,203,0.0,2.0,83,0.00,,,0.00,meteohub,2013-01-26 23:57:00,
2013-01-26 19:02:00,15.4,11.1,29.61,SSE,158,0.0,2.0,83,0.00,,,0.00,meteohub,2013-01-27 00:02:00,
2013-01-26 19:07:00,14.9,10.8,29.61,SW,225,0.0,2.0,83,0.00,,,0.00,meteohub,2013-01-27 00:07:00,
2013-01-26 19:12:00,14.7,10.6,29.61,NW,315,0.0,2.0,83,0.00,,,0.00,meteohub,2013-01-27 00:12:00,
2013-01-26 19:17:00,14.2,10.0,29.60,WSW,248,0.0,0.0,83,0.00,,,0.00,meteohub,2013-01-27 00:17:00,
2013-01-26 19:22:00,13.6,9.5,29.60,SW,225,0.0,0.0,83,0.00,,,0.00,meteohub,2013-01-27 00:22:00,
2013-01-26 19:27:00,13.1,9.0,29.60,NE,45,0.0,0.0,83,0.00,,,0.00,meteohub,2013-01-27 00:27:00,
2013-01-26 19:32:00,12.7,8.6,29.60,NE,45,0.0,0.0,83,0.00,,,0.00,meteohub,2013-01-27 00:32:00,
2013-01-26 19:38:00,12.6,8.4,29.62,NNE,23,0.0,0.0,83,0.00,,,0.00,meteohub,2013-01-27 00:38:00,
2013-01-26 19:43:00,12.6,8.4,29.62,NE,45,0.0,0.0,83,0.00,,,0.00,meteohub,2013-01-27 00:43:00,
2013-01-26 19:48:00,12.6,8.4,29.62,NE,45,0.0,0.0,83,0.00,,,0.00,meteohub,2013-01-27 00:48:00,
2013-01-26 19:53:00,12.7,8.6,29.62,NNE,23,0.0,0.0,83,0.00,,,0.00,meteohub,2013-01-27 00:53:00,
2013-01-26 19:58:00,12.6,8.4,29.62,NNE,23,0.0,0.0,83,0.00,,,0.00,meteohub,2013-01-27 00:58:00,
2013-01-26 20:03:00,12.6,8.6,29.62,WSW,248,0.0,0.0,84,0.00,,,0.00,meteohub,2013-01-27 01:03:00,
2013-01-26 20:08:00,12.6,8.6,29.62,SSE,158,0.0,0.0,84,0.00,,,0.00,meteohub,2013-01-27 01:08:00,
2013-01-26 20:13:00,12.2,8.1,29.62,SSW,203,0.0,0.0,83,0.00,,,0.00,meteohub,2013-01-27 01:13:00,
2013-01-26 20:18:00,11.8,7.7,29.62,SSW,203,0.0,0.0,83,0.00,,,0.00,meteohub,2013-01-27 01:18:00,
2013-01-26 20:23:00,11.1,7.0,29.62,South,180,0.0,0.0,83,0.00,,,0.00,meteohub,2013-01-27 01:23:00,
2013-01-26 20:28:00,10.8,6.6,29.62,NNE,23,0.0,0.0,83,0.00,,,0.00,meteohub,2013-01-27 01:28:00,
2013-01-26 20:33:00,10.4,6.6,29.62,NNE,23,0.0,0.0,84,0.00,,,0.00,meteohub,2013-01-27 01:33:00,
2013-01-26 20:38:00,10.4,6.6,29.62,South,180,0.0,1.0,84,0.00,,,0.00,meteohub,2013-01-27 01:38:00,
2013-01-26 20:43:00,9.9,5.7,29.62,ESE,113,0.0,1.0,83,0.00,,,0.00,meteohub,2013-01-27 01:43:00,
2013-01-26 20:48:00,9.7,5.5,29.62,NNE,23,0.0,0.0,83,0.00,,,0.00,meteohub,2013-01-27 01:48:00,
2013-01-26 20:53:00,9.5,5.4,29.62,NNE,23,0.0,0.0,83,0.00,,,0.00,meteohub,2013-01-27 01:53:00,
2013-01-26 20:58:00,9.3,5.2,29.62,SE,135,0.0,0.0,83,0.00,,,0.00,meteohub,2013-01-27 01:58:00,
2013-01-26 21:03:00,9.3,5.2,29.62,South,180,0.0,0.0,83,0.00,,,0.00,meteohub,2013-01-27 02:03:00,
2013-01-26 21:08:00,9.3,5.2,29.62,South,180,0.0,0.0,83,0.00,,,0.00,meteohub,2013-01-27 02:08:00,
2013-01-26 21:13:00,9.3,5.2,29.62,South,180,0.0,0.0,83,0.00,,,0.00,meteohub,2013-01-27 02:13:00,
2013-01-26 21:18:00,9.0,4.8,29.61,SSW,203,0.0,0.0,83,0.00,,,0.00,meteohub,2013-01-27 02:18:00,
2013-01-26 21:23:00,8.8,5.0,29.61,SW,225,0.0,0.0,84,0.00,,,0.00,meteohub,2013-01-27 02:23:00,
2013-01-26 21:28:00,8.4,4.6,29.61,NE,45,0.0,2.0,84,0.00,,,0.00,meteohub,2013-01-27 02:28:00,
2013-01-26 21:33:00,8.2,4.5,29.61,North,0,0.0,0.0,84,0.00,,,0.00,meteohub,2013-01-27 02:33:00,
2013-01-26 21:38:00,8.1,4.3,29.61,NW,315,0.0,0.0,84,0.00,,,0.00,meteohub,2013-01-27 02:38:00,
2013-01-26 21:43:00,8.1,4.3,29.61,NNE,23,0.0,0.0,84,0.00,,,0.00,meteohub,2013-01-27 02:43:00,
2013-01-26 21:48:00,8.2,4.5,29.61,SSW,203,0.0,0.0,84,0.00,,,0.00,meteohub,2013-01-27 02:48:00,
2013-01-26 21:53:00,8.2,4.5,29.61,SSW,203,0.0,0.0,84,0.00,,,0.00,meteohub,2013-01-27 02:53:00,
2013-01-26 21:58:00,8.4,4.6,29.60,East,90,0.0,0.0,84,0.00,,,0.00,meteohub,2013-01-27 02:58:00,
2013-01-26 22:03:00,8.4,4.6,29.60,SW,225,2.0,0.0,84,0.00,,,0.00,meteohub,2013-01-27 03:03:00,
2013-01-26 22:08:00,7.9,4.1,29.60,WSW,248,0.0,2.0,84,0.00,,,0.00,meteohub,2013-01-27 03:08:00,
2013-01-26 22:14:00,7.7,3.9,29.60,NNW,338,0.0,2.0,84,0.00,,,0.00,meteohub,2013-01-27 03:14:00,
2013-01-26 22:19:00,7.5,3.7,29.60,NNE,23,0.0,2.0,84,0.00,,,0.00,meteohub,2013-01-27 03:19:00,
2013-01-26 22:24:00,7.5,3.7,29.60,ESE,113,0.0,2.0,84,0.00,,,0.00,meteohub,2013-01-27 03:24:00,
2013-01-26 22:29:00,7.5,3.7,29.60,ESE,113,0.0,2.0,84,0.00,,,0.00,meteohub,2013-01-27 03:29:00,
2013-01-26 22:34:00,7.7,3.9,29.60,ESE,113,0.0,0.0,84,0.00,,,0.00,meteohub,2013-01-27 03:34:00,
2013-01-26 22:39:00,8.1,4.3,29.61,ESE,113,0.0,0.0,84,0.00,,,0.00,meteohub,2013-01-27 03:39:00,
2013-01-26 22:44:00,8.4,4.6,29.61,ESE,113,0.0,0.0,84,0.00,,,0.00,meteohub,2013-01-27 03:44:00,
2013-01-26 22:49:00,8.6,4.8,29.61,ESE,113,0.0,0.0,84,0.00,,,0.00,meteohub,2013-01-27 03:49:00,
2013-01-26 22:54:00,8.6,4.8,29.61,ESE,113,0.0,0.0,84,0.00,,,0.00,meteohub,2013-01-27 03:54:00,
2013-01-26 22:59:00,8.4,4.6,29.62,ESE,113,0.0,0.0,84,0.00,,,0.00,meteohub,2013-01-27 03:59:00,
2013-01-26 23:04:00,8.4,4.6,29.62,ESE,113,0.0,0.0,84,0.00,,,0.00,meteohub,2013-01-27 04:04:00,
2013-01-26 23:09:00,8.4,4.6,29.62,ESE,113,0.0,0.0,84,0.00,,,0.00,meteohub,2013-01-27 04:09:00,
2013-01-26 23:14:00,8.4,4.6,29.62,ESE,113,0.0,0.0,84,0.00,,,0.00,meteohub,2013-01-27 04:14:00,
2013-01-26 23:19:00,8.2,4.5,29.63,ESE,113,0.0,0.0,84,0.00,,,0.00,meteohub,2013-01-27 04:19:00,
2013-01-26 23:24:00,8.4,4.6,29.63,ESE,113,0.0,0.0,84,0.00,,,0.00,meteohub,2013-01-27 04:24:00,
2013-01-26 23:29:00,8.2,4.5,29.63,ESE,113,0.0,0.0,84,0.00,,,0.00,meteohub,2013-01-27 04:29:00,
2013-01-26 23:34:00,8.2,4.5,29.63,ESE,113,0.0,0.0,84,0.00,,,0.00,meteohub,2013-01-27 04:34:00,
2013-01-26 23:39:00,8.4,4.6,29.63,ESE,113,0.0,0.0,84,0.00,,,0.00,meteohub,2013-01-27 04:39:00,
2013-01-26 23:44:00,8.4,4.6,29.63,ESE,113,0.0,0.0,84,0.00,,,0.00,meteohub,2013-01-27 04:44:00,
2013-01-26 23:49:00,9.0,5.2,29.63,ESE,113,0.0,0.0,84,0.00,,,0.00,meteohub,2013-01-27 04:49:00,
2013-01-26 23:54:00,9.0,5.2,29.63,ESE,113,0.0,0.0,84,0.00,,,0.00,meteohub,2013-01-27 04:54:00,
2013-01-26 23:59:00,9.1,5.4,29.64,ESE,113,0.0,0.0,84,0.00,,,0.00,meteohub,2013-01-27 04:59:00,